createdAt,value
2022-09-03T00:02:22.417Z,100551.91
2022-09-03T00:07:33.372Z,100547.34
2022-09-03T00:12:41.822Z,100542.72
2022-09-03T00:17:49.048Z,100551.78
2022-09-03T00:22:55.185Z,100549.34
2022-09-03T00:28:02.699Z,100550.53
2022-09-03T00:33:10.733Z,100550.38
2022-09-03T00:38:13.735Z,100545.72
2022-09-03T00:43:32.868Z,100553.50
2022-09-03T00:48:51.153Z,100539.31
2022-09-03T00:54:01.640Z,100542.19
2022-09-03T00:59:22.928Z,100548.16
2022-09-03T01:04:33.672Z,100552.91
2022-09-03T01:09:49.052Z,100545.97
2022-09-03T01:15:05.238Z,100539.28
2022-09-03T01:20:22.335Z,100548.41
2022-09-03T01:25:37.625Z,100550.22
2022-09-03T01:30:47.351Z,100558.13
2022-09-03T01:35:54.407Z,100558.88
2022-09-03T01:41:23.424Z,100555.16
2022-09-03T01:46:34.915Z,100558.75
2022-09-03T01:51:37.611Z,100560.06
2022-09-03T01:56:56.911Z,100547.66
2022-09-03T02:02:07.826Z,100550.41
2022-09-03T02:07:10.490Z,100554.59
2022-09-03T02:12:20.380Z,100555.91
2022-09-03T02:17:24.222Z,100551.41
2022-09-03T02:22:26.872Z,100551.44
2022-09-03T02:27:29.739Z,100559.13
2022-09-03T02:32:33.876Z,100551.94
2022-09-03T02:37:36.501Z,100549.91
2022-09-03T02:42:39.122Z,100546.94
2022-09-03T02:47:45.765Z,100550.41
2022-09-03T02:52:48.230Z,100542.25
2022-09-03T02:57:50.672Z,100544.75
2022-09-03T03:02:56.450Z,100539.53
2022-09-03T03:07:59.098Z,100532.53
2022-09-03T03:13:01.791Z,100530.78
2022-09-03T03:18:05.971Z,100531.56
2022-09-03T03:23:09.017Z,100524.09
2022-09-03T03:28:11.495Z,100522.16
2022-09-03T03:33:15.435Z,100527.13
2022-09-03T03:38:18.130Z,100532.41
2022-09-03T03:43:20.564Z,100540.16
2022-09-03T03:48:24.748Z,100533.56
2022-09-03T03:53:27.248Z,100531.31
2022-09-03T03:58:32.527Z,100541.06
2022-09-03T04:03:36.818Z,100534.78
2022-09-03T04:08:41.027Z,100532.31
2022-09-03T04:13:45.589Z,100535.50
2022-09-03T04:18:50.172Z,100529.16
2022-09-03T04:23:53.575Z,100535.25
2022-09-03T04:28:56.676Z,100536.16
2022-09-03T04:34:02.162Z,100532.56
2022-09-03T04:39:04.669Z,100539.41
2022-09-03T04:44:07.145Z,100545.84
2022-09-03T04:49:10.977Z,100540.72
2022-09-03T04:54:13.485Z,100533.81
2022-09-03T04:59:15.998Z,100534.44
2022-09-03T05:04:20.153Z,100552.47
2022-09-03T05:09:22.598Z,100545.72
2022-09-03T05:14:25.054Z,100539.63
2022-09-03T05:19:29.249Z,100552.22
2022-09-03T05:24:31.809Z,100537.19
2022-09-03T05:29:34.237Z,100551.53
2022-09-03T05:34:38.153Z,100540.81
2022-09-03T05:39:40.598Z,100539.66
2022-09-03T05:44:43.829Z,100545.28
2022-09-03T05:49:47.924Z,100541.38
2022-09-03T05:54:50.405Z,100548.75
2022-09-03T05:59:53.392Z,100548.44
2022-09-03T06:04:57.819Z,100550.25
2022-09-03T06:10:00.479Z,100548.28
2022-09-03T06:15:02.925Z,100549.59
2022-09-03T06:20:08.238Z,100557.78
2022-09-03T06:25:11.419Z,100556.72
2022-09-03T06:30:15.732Z,100554.59
2022-09-03T06:35:19.964Z,100558.53
2022-09-03T06:40:23.570Z,100562.34
2022-09-03T06:45:26.218Z,100556.94
2022-09-03T06:50:34.407Z,100560.63
2022-09-03T06:55:40.133Z,100558.25
2022-09-03T07:00:43.073Z,100565.25
2022-09-03T07:05:47.074Z,100556.38
2022-09-03T07:10:51.235Z,100559.28
2022-09-03T07:16:01.331Z,100556.91
2022-09-03T07:21:07.380Z,100549.88
2022-09-03T07:26:13.239Z,100552.47
2022-09-03T07:31:19.265Z,100547.00
2022-09-03T07:36:25.136Z,100544.94
2022-09-03T07:41:29.122Z,100541.09
2022-09-03T07:46:32.398Z,100546.25
2022-09-03T07:51:37.918Z,100542.38
2022-09-03T07:56:41.442Z,100549.47
2022-09-03T08:01:43.945Z,100550.16
2022-09-03T08:06:48.268Z,100551.84
2022-09-03T08:11:50.653Z,100546.31
2022-09-03T08:16:53.365Z,100544.22
2022-09-03T08:21:57.167Z,100540.09
2022-09-03T08:26:59.620Z,100534.16
2022-09-03T08:32:05.210Z,100533.03
2022-09-03T08:37:12.732Z,100536.00
2022-09-03T08:42:29.636Z,100532.53
2022-09-03T08:47:37.402Z,100531.00
2022-09-03T08:52:49.202Z,100521.91
2022-09-03T08:57:57.224Z,100513.38
2022-09-03T09:03:15.338Z,100520.34
2022-09-03T09:08:25.045Z,100511.09
2022-09-03T09:13:35.232Z,100520.34
2022-09-03T09:18:51.010Z,100511.88
2022-09-03T09:23:59.124Z,100510.22
2022-09-03T09:29:06.362Z,100516.94
2022-09-03T09:34:12.909Z,100502.72
2022-09-03T09:39:17.084Z,100501.38
2022-09-03T09:44:21.635Z,100497.44
2022-09-03T09:49:32.316Z,100490.25
2022-09-03T09:54:36.487Z,100500.31
2022-09-03T09:59:39.037Z,100485.78
2022-09-03T10:04:44.213Z,100486.16
2022-09-03T10:10:00.531Z,100490.88
2022-09-03T10:15:10.267Z,100488.19
2022-09-03T10:20:34.313Z,100480.50
2022-09-03T10:25:48.144Z,100474.13
2022-09-03T10:31:19.271Z,100472.09
2022-09-03T10:36:26.450Z,100463.19
2022-09-03T10:41:42.543Z,100460.94
2022-09-03T10:46:58.838Z,100466.41
2022-09-03T10:52:09.038Z,100461.81
2022-09-03T10:57:22.767Z,100453.22
2022-09-03T11:02:47.498Z,100451.06
2022-09-03T11:07:54.148Z,100451.59
2022-09-03T11:13:05.838Z,100449.97
2022-09-03T11:18:17.506Z,100448.00
2022-09-03T11:23:21.034Z,100440.16
2022-09-03T11:28:37.185Z,100431.47
2022-09-03T11:33:42.874Z,100422.09
2022-09-03T11:38:45.412Z,100422.75
2022-09-03T11:43:49.504Z,100421.59
2022-09-03T11:48:55.475Z,100413.84
2022-09-03T11:54:00.279Z,100409.19
2022-09-03T11:59:16.330Z,100396.56
2022-09-03T12:04:21.473Z,100390.88
2022-09-03T12:09:40.092Z,100396.41
2022-09-03T12:15:02.497Z,100389.22
2022-09-03T12:20:13.253Z,100385.78
2022-09-03T12:25:17.140Z,100396.75
2022-09-03T12:30:26.214Z,100381.75
2022-09-03T12:46:17.404Z,100381.28
2022-09-03T12:56:46.361Z,100357.72
2022-09-03T13:01:54.006Z,100363.25
2022-09-03T13:07:03.526Z,100359.03
2022-09-03T13:12:07.353Z,100342.53
2022-09-03T13:17:33.179Z,100342.56
2022-09-03T13:22:47.323Z,100346.22
2022-09-03T13:28:02.485Z,100326.19
2022-09-03T13:33:17.805Z,100330.63
2022-09-03T13:38:28.940Z,100324.50
2022-09-03T13:43:39.778Z,100336.63
2022-09-03T13:49:03.677Z,100340.47
2022-09-03T13:54:31.019Z,100326.22
2022-09-03T13:59:50.019Z,100341.53
2022-09-03T14:05:08.005Z,100323.81
2022-09-03T14:10:28.676Z,100310.03
2022-09-03T14:15:35.950Z,100304.00
2022-09-03T14:20:45.208Z,100306.03
2022-09-03T14:25:54.899Z,100311.22
2022-09-03T14:31:11.860Z,100310.19
2022-09-03T14:36:27.321Z,100314.19
2022-09-03T14:41:46.505Z,100308.53
2022-09-03T14:47:03.586Z,100309.00
2022-09-03T14:52:25.545Z,100310.47
2022-09-03T14:57:55.974Z,100311.09
2022-09-03T15:03:22.176Z,100305.41
2022-09-03T15:08:39.860Z,100306.06
2022-09-03T15:13:48.564Z,100300.53
2022-09-03T15:19:07.843Z,100304.22
2022-09-03T15:24:20.764Z,100300.34
2022-09-03T15:29:37.587Z,100298.59
2022-09-03T15:35:08.777Z,100297.47
2022-09-03T15:40:24.611Z,100314.75
2022-09-03T15:45:36.561Z,100304.72
2022-09-03T15:50:52.848Z,100307.84
2022-09-03T15:56:13.900Z,100319.38
2022-09-03T16:01:27.819Z,100317.31
2022-09-03T16:06:38.104Z,100322.09
2022-09-03T16:11:53.296Z,100306.78
2022-09-03T16:17:03.693Z,100316.75
2022-09-03T16:22:13.258Z,100311.53
2022-09-03T16:27:21.993Z,100313.22
2022-09-03T16:32:35.162Z,100317.75
2022-09-03T16:37:54.232Z,100319.66
2022-09-03T16:43:23.624Z,100315.13
2022-09-03T16:48:38.399Z,100316.81
2022-09-03T16:54:00.148Z,100319.59
2022-09-03T16:59:16.156Z,100319.59
2022-09-03T17:04:41.419Z,100319.38
2022-09-03T17:09:59.319Z,100315.88
2022-09-03T17:15:21.718Z,100311.34
2022-09-03T17:20:47.245Z,100319.25
2022-09-03T17:25:55.604Z,100319.47
2022-09-03T17:31:09.897Z,100329.78
2022-09-03T17:36:14.923Z,100328.75
2022-09-03T17:41:32.342Z,100327.56
2022-09-03T17:46:46.942Z,100336.38
2022-09-03T17:51:59.473Z,100349.31
2022-09-03T17:57:14.636Z,100347.09
2022-09-03T18:02:32.322Z,100352.97
2022-09-03T18:07:43.959Z,100358.31
2022-09-03T18:13:01.361Z,100353.94
2022-09-03T18:18:12.538Z,100355.13
2022-09-03T18:23:39.684Z,100356.59
2022-09-03T18:29:05.490Z,100359.19
2022-09-03T18:34:27.445Z,100377.22
2022-09-03T18:39:48.283Z,100378.09
2022-09-03T18:45:21.940Z,100383.25
2022-09-03T18:50:45.528Z,100378.44
2022-09-03T18:56:19.117Z,100388.91
2022-09-03T19:01:49.589Z,100384.38
2022-09-03T19:07:22.817Z,100393.63
2022-09-03T19:12:59.497Z,100396.16
2022-09-03T19:18:28.085Z,100402.47
2022-09-03T19:23:51.781Z,100393.22
2022-09-03T19:29:26.389Z,100396.13
2022-09-03T19:35:08.026Z,100390.78
2022-09-03T19:40:44.820Z,100394.81
2022-09-03T19:46:12.886Z,100397.22
2022-09-03T19:51:37.648Z,100397.47
2022-09-03T19:56:59.907Z,100400.53
2022-09-03T20:02:20.642Z,100406.16
2022-09-03T20:07:41.176Z,100404.84
2022-09-03T20:12:50.289Z,100413.50
2022-09-03T20:18:02.587Z,100425.22
2022-09-03T20:23:12.803Z,100424.75
2022-09-03T20:28:29.939Z,100426.38
2022-09-03T20:33:58.457Z,100431.38
2022-09-03T20:39:20.653Z,100430.19
2022-09-03T20:44:52.130Z,100436.56
2022-09-03T20:50:04.249Z,100443.63
2022-09-03T20:55:13.809Z,100438.97
2022-09-03T21:00:19.731Z,100441.75
2022-09-03T21:05:30.178Z,100439.59
2022-09-03T21:10:37.504Z,100435.63
2022-09-03T21:15:56.452Z,100437.13
2022-09-03T21:21:05.838Z,100449.09
2022-09-03T21:26:16.066Z,100441.63
2022-09-03T21:31:25.541Z,100429.41
2022-09-03T21:36:31.579Z,100441.09
2022-09-03T21:41:39.057Z,100448.91
2022-09-03T21:46:51.029Z,100456.28
2022-09-03T21:52:00.269Z,100449.25
2022-09-03T21:57:14.098Z,100455.00
2022-09-03T22:02:25.057Z,100459.75
2022-09-03T22:07:42.902Z,100465.28
2022-09-03T22:12:53.518Z,100472.56
2022-09-03T22:18:02.162Z,100467.31
2022-09-03T22:23:12.343Z,100466.75
2022-09-03T22:28:22.516Z,100465.66
2022-09-03T22:33:34.777Z,100475.84
2022-09-03T22:38:56.456Z,100479.59
2022-09-03T22:44:11.169Z,100483.13
2022-09-03T22:49:30.117Z,100472.44
2022-09-03T22:54:44.706Z,100473.06
2022-09-03T22:59:56.556Z,100478.72
2022-09-03T23:05:06.722Z,100472.13
2022-09-03T23:10:14.540Z,100482.03
2022-09-03T23:15:32.297Z,100479.34
2022-09-03T23:20:40.289Z,100480.19
2022-09-03T23:25:45.276Z,100478.81
2022-09-03T23:30:47.982Z,100479.53
2022-09-03T23:35:57.811Z,100488.19
2022-09-03T23:41:05.368Z,100484.63
2022-09-03T23:46:17.404Z,100493.50
2022-09-03T23:51:32.738Z,100494.44
2022-09-03T23:56:53.226Z,100495.31
